Tiempo atmosférico en la estación meteorológica de Albarracín, Teruel (1130 m.)



Fecha
DESCASC
Temp. máxima en grados centígrados (hora)
DESCASC
Temp. mínima en grados centígrados (hora)
DESCASC
Temp. media en grados centígrados
DESCASC
Racha de viento máxima en m/sg (hora)
DESCASC
Velocidad máxima media en intervalos de 10 minutos(hora)
DESCASC
Precipitaciones diarias en mm
DESCASC
Precipitaciones de 00:00 a 06:00 en mm
DESCASC
Precipitaciones de 06:00 a 12:00 en mm
DESCASC
Precipitaciones de 12:00 a 18:00 en mm
DESCASC
Precipitaciones de 18:00 a 24:00 en mm
DESCASC
23-06-2019 31.3 (17:10) 16 (06:40) 23.6 10.56 (13:20) 6.11 (19:50) 0 0 0 0 0
22-06-2019 28.4 (17:50) 8.8 (07:10) 18.6 9.44 (15:00) 6.39 (21:00) 0 0 0 0 0
21-06-2019 24.1 (14:10) 12.9 (05:50) 18.5 10.28 (20:10) 6.94 (20:10) 0 0 0 0 0
20-06-2019 27.3 (15:50) 11.1 (00:00) 19.2 8.89 (15:40) 5 (12:30) 0 0 0 0 0
19-06-2019 -- (--) -- (--) -- -- (--) -- (--) -- 0 0 -- 0
18-06-2019 28.6 (16:50) 16.8 (00:00) 22.7 15 (15:10) 6.39 (11:30) 0 0 0 0 0
17-06-2019 28.8 (16:50) 10.6 (00:00) 19.7 9.72 (17:30) 5 (14:30) 0 0 0 0 0
16-06-2019 25.1 (16:30) 6.6 (00:00) 15.9 10 (15:10) 5.83 (14:40) 0 0 0 0 0
15-06-2019 23.2 (18:30) 5.6 (00:00) 14.4 8.89 (14:30) 5 (14:30) 0 0 0 0 0
14-06-2019 24.1 (16:30) 11.3 (00:00) 17.7 11.11 (17:20) 5 (16:30) 2 0 2 0 0
13-06-2019 21.7 (18:20) 10.1 (00:00) 15.9 10 (12:10) 5.83 (12:10) 0 0 0 0 0
12-06-2019 20.8 (18:50) 0.5 (00:00) 10.6 11.67 (20:10) 7.22 (20:00) 0 0 0 0 0
11-06-2019 12.3 (19:20) 5.2 (00:00) 8.8 12.78 (17:30) 7.5 (17:30) 0 0 0 0 0
10-06-2019 22.4 (16:20) 6.6 (00:00) 14.5 8.33 (21:50) 5.28 (21:50) 0 0 0 0 0
09-06-2019 25.6 (15:50) 10.4 (00:00) 18 9.72 (16:40) 4.17 (18:50) 0 0 0 0 0
08-06-2019 22.5 (15:30) 3.7 (00:00) 13.1 15.28 (16:50) 7.5 (16:10) 0 0 0 0 0
07-06-2019 20.8 (17:50) 10.2 (00:00) 15.5 10 (13:00) 5.28 (12:40) 0 0 0 0 0
06-06-2019 21.9 (18:30) 3.6 (00:00) 12.7 15 (17:00) 9.17 (20:30) 0 0 0 0 0
05-06-2019 18.1 (00:00) 8.9 (00:00) 13.5 13.06 (13:00) 7.78 (13:00) 0 0 0 0 0
04-06-2019 27.9 (16:40) 11.8 (00:00) 19.8 13.61 (14:10) 6.94 (16:50) 0 0 0 0 0
03-06-2019 29.4 (15:40) 14.6 (00:00) 22 9.17 (19:30) 5 (01:00) 0 0 0 0 0
02-06-2019 29.5 (16:20) 10.5 (00:00) 20 10 (22:10) 5.83 (22:10) 0 0 0 0 0
01-06-2019 28.1 (18:40) 9 (00:00) 18.6 8.61 (19:30) 5.56 (19:30) 0 0 0 0 0
31-05-2019 26.8 (17:40) 6.8 (00:00) 16.8 6.39 (08:40) 4.17 (08:30) 0 0 0 0 0
30-05-2019 24.1 (16:50) 4.4 (00:00) 14.3 8.61 (16:40) 4.72 (16:40) 0 0 0 0 0
29-05-2019 18.7 (17:10) 4.7 (00:00) 11.7 13.61 (12:40) 8.06 (12:40) 0 0 0 0 0
28-05-2019 18.9 (16:20) 7.1 (00:00) 13 10.83 (18:10) 6.39 (18:20) 0 0 0 0 0
27-05-2019 22.8 (17:20) 3.9 (00:00) 13.3 12.5 (16:40) 6.11 (16:40) 0 0 0 0 0
26-05-2019 18.2 (18:40) 6.7 (00:00) 12.5 10.56 (16:50) 5 (15:10) 0 0 0 0 0
25-05-2019 15.9 (17:50) 8.3 (00:00) 12.1 11.39 (09:50) 7.22 (09:00) 0 0 0 0 0

Gráficas

Temp. máximas Temp. mínimas Temp. medias Precipitaciones Rachas de viento máximas Velocidades máximas media en intervalos de 10 minutos

Datos horarios

Fecha y hora oficial Temperatura (ºC) Velocidad del viento (km/h) Dirección del viento Racha (km/h) Dirección de racha Precipitación (mm) Presión (hPa) Tendencia (hPa) Humedad (%)
2019-06-23 23:00:00 22.2 9 Sudoeste 22 Sur 0 -- -- 38
2019-06-23 22:00:00 23 3 Norte 15 Nordeste 0 -- -- 40
2019-06-23 21:00:00 25.5 3 Noroeste 36 Sudeste 0 -- -- 35
2019-06-23 20:00:00 27.5 19 Sudeste 35 Este 0 -- -- 35
2019-06-23 19:00:00 29.7 19 Sudeste 32 Sudeste 0 -- -- 31
2019-06-23 18:00:00 30.9 15 Sudeste 32 Sudeste 0 -- -- 26
2019-06-23 17:00:00 30.8 16 Sudeste 31 Sur 0 -- -- 26
2019-06-23 16:00:00 30.5 15 Sudeste 32 Sur 0 -- -- 26
2019-06-23 15:00:00 29.6 13 Sur 33 Sudeste 0 -- -- 29
2019-06-23 14:00:00 28.7 15 Sudeste 38 Sudeste 0 -- -- 29
2019-06-23 13:00:00 27.4 19 Sur 36 Sur 0 -- -- 31
2019-06-23 12:00:00 26.3 12 Sudeste 35 Sudeste 0 -- -- 34
2019-06-23 11:00:00 24.4 15 Sudeste 34 Sur 0 -- -- 35
2019-06-23 10:00:00 22.5 18 Sur 31 Sur 0 -- -- 39
2019-06-23 09:00:00 20.6 17 Sur 30 Sur 0 -- -- 44
2019-06-23 08:00:00 17.9 13 Sudoeste 26 Sudoeste 0 -- -- 58
2019-06-23 07:00:00 16.1 12 Sudoeste 21 Sudoeste 0 -- -- 63
2019-06-23 06:00:00 16.2 10 Sudoeste 25 Sudoeste 0 -- -- 64
2019-06-23 05:00:00 16.6 14 Sudoeste 22 Sudoeste 0 -- -- 67
2019-06-23 04:00:00 17.4 14 Sudoeste 29 Sudoeste 0 -- -- 68
2019-06-23 03:00:00 18.1 16 Sudoeste 27 Sudoeste 0 -- -- 69
2019-06-23 02:00:00 18.5 15 Sudoeste 24 Sudoeste 0 -- -- 65
2019-06-23 01:00:00 18.9 15 Sudoeste 24 Sudoeste 0 -- -- 64
2019-06-23 00:00:00 19.6 13 Sudoeste 22 Sudoeste 0 -- -- 63
2019-06-22 23:00:00 20.6 9 Sur 18 Sudoeste 0 -- -- 60
2019-06-22 22:00:00 22.3 14 Sur 34 Sudeste 0 -- -- 54
2019-06-22 21:00:00 23.3 23 Sudeste 33 Sur 0 -- -- 53
2019-06-22 20:00:00 26 10 Sudeste 27 Sudeste 0 -- -- 35
2019-06-22 19:00:00 26.5 11 Sur 32 Sudeste 0 -- -- 35
2019-06-22 18:00:00 28.1 12 Sur 26 Sur 0 -- -- 31
2019-06-22 17:00:00 27.7 13 Sudeste 31 Sudeste 0 -- -- 30
2019-06-22 16:00:00 27.2 13 Sudeste 32 Sudeste 0 -- -- 32
2019-06-22 15:00:00 26.8 9 Sudeste 34 Sudeste 0 -- -- 33
2019-06-22 14:00:00 25 6 Sudoeste 25 Sudeste 0 -- -- 38
2019-06-22 13:00:00 23.7 15 Sudeste 32 Sudeste 0 -- -- 43
2019-06-22 12:00:00 23.8 14 Sudeste 27 Sudeste 0 -- -- 46
2019-06-22 11:00:00 21.9 13 Sudeste 30 Sudeste 0 -- -- 56
2019-06-22 10:00:00 18.9 8 Este 18 Este 0 -- -- 63
2019-06-22 09:00:00 14.6 9 Este 16 Este 0 -- -- 73
2019-06-22 08:00:00 10.4 9 Sudeste 15 Sudeste 0 -- -- 83
2019-06-22 07:00:00 8.9 10 Sudeste 19 Este 0 -- -- 85
2019-06-22 06:00:00 9.7 11 Sudeste 19 Sudeste 0 -- -- 84
2019-06-22 05:00:00 10.1 7 Sudeste 15 Sudeste 0 -- -- 83
2019-06-22 04:00:00 10.5 3 Sudeste 10 Sudeste 0 -- -- 82
2019-06-22 03:00:00 11.1 2 Oeste 6 Noroeste 0 -- -- 80
2019-06-22 02:00:00 12.2 0 Calma 5 Sudoeste 0 -- -- 76
2019-06-22 01:00:00 13.2 3 Sudoeste 6 Sudoeste 0 -- -- 73
2019-06-22 00:00:00 14.9 4 Norte 10 Norte 0 -- -- 67
2019-06-21 23:00:00 16 6 Norte 18 Noroeste 0 -- -- 64
2019-06-21 22:00:00 17.4 8 Noroeste 19 Noroeste 0 -- -- 60
2019-06-21 21:00:00 19.1 14 Norte 37 Noroeste 0 -- -- 56
2019-06-21 20:00:00 19.7 23 Noroeste 37 Noroeste 0 -- -- 53
2019-06-21 19:00:00 21.5 14 Nordeste 29 Norte 0 -- -- 50
2019-06-21 18:00:00 23.1 8 Nordeste 26 Norte 0 -- -- 46
2019-06-21 17:00:00 22.6 13 Noroeste 28 Norte 0 -- -- 48
2019-06-21 16:00:00 22.6 12 Norte 36 Noroeste 0 -- -- 49
2019-06-21 15:00:00 22.9 12 Norte 34 Noroeste 0 -- -- 46
2019-06-21 14:00:00 23.9 13 Sudeste 23 Este 0 -- -- 47
2019-06-21 13:00:00 21.8 11 Norte 22 Noroeste 0 -- -- 52
2019-06-21 12:00:00 20.3 8 Norte 21 Norte 0 -- -- 58
2019-06-21 11:00:00 17.9 6 Norte 12 Norte 0 -- -- 66
2019-06-21 10:00:00 15.5 5 Norte 15 Norte 0 -- -- 76
2019-06-21 09:00:00 14.3 12 Noroeste 17 Noroeste 0 -- -- 81
2019-06-21 08:00:00 13.9 5 Norte 12 Norte 0 -- -- 85
2019-06-21 07:00:00 13.3 4 Norte 9 Norte 0 -- -- 86
2019-06-21 06:00:00 12.9 4 Noroeste 9 Norte 0 -- -- 86
2019-06-21 05:00:00 13.3 5 Noroeste 12 Norte 0 -- -- 85
2019-06-21 04:00:00 13.5 7 Noroeste 12 Noroeste 0 -- -- 86
2019-06-21 03:00:00 14.3 3 Sur 6 Sur 0 -- -- 81
2019-06-21 02:00:00 14.9 0 Calma 4 Noroeste 0 -- -- 79
2019-06-21 01:00:00 15.5 2 Sur 4 Sur 0 -- -- 76
2019-06-21 00:00:00 16.5 0 Calma 4 Oeste 0 -- -- 72
2019-06-20 23:00:00 17.8 2 Norte 11 Norte 0 -- -- 68
2019-06-20 22:00:00 19.4 7 Noroeste 13 Norte 0 -- -- 63
2019-06-20 21:00:00 21.5 11 Norte 21 Nordeste 0 -- -- 57
2019-06-20 20:00:00 23.9 9 Norte 22 Noroeste 0 -- -- 45
2019-06-20 19:00:00 24.1 13 Noroeste 25 Noroeste 0 -- -- 45
2019-06-20 18:00:00 25.5 11 Norte 20 Norte 0 -- -- 38
2019-06-20 17:00:00 26.6 10 Oeste 26 Sudoeste 0 -- -- 28
2019-06-20 16:00:00 27.3 14 Sudoeste 32 Sudeste 0 -- -- 27
2019-06-20 15:00:00 26.7 13 Sur 32 Sudeste 0 -- -- 27
2019-06-20 14:00:00 26.9 13 Sudeste 31 Sudoeste 0 -- -- 28
2019-06-20 13:00:00 26 11 Sur 31 Sudeste 0 -- -- 27
2019-06-20 12:00:00 24.6 10 Sur 22 Sur 0 -- -- 31
2019-06-20 11:00:00 23.3 9 Sudeste 19 Sudeste 0 -- -- 39
2019-06-20 10:00:00 21 6 Sudeste 15 Sudeste 0 -- -- 46
2019-06-20 09:00:00 16.4 8 Este 20 Este 0 -- -- 60
2019-06-20 08:00:00 12.4 8 Sudeste 15 Sudeste 0 -- -- 72
2019-06-20 07:00:00 11.1 0 Calma 12 Sudeste 0 -- -- 74
2019-06-20 06:00:00 12.3 6 Sudeste 13 Sudeste 0 -- -- 70
2019-06-20 05:00:00 12.7 7 Sudeste 12 Sudeste 0 -- -- 68
2019-06-20 04:00:00 13.7 2 Sudeste 8 Este 0 -- -- 65
2019-06-20 03:00:00 15.1 5 Sur 15 Este 0 -- -- 59
2019-06-20 02:00:00 16 5 Sur 9 Sudeste 0 -- -- 56
2019-06-20 01:00:00 17.7 7 Sudoeste 13 Sudoeste 0 -- -- 52
2019-06-20 00:00:00 18.3 10 Sudeste 14 Sudeste 0 -- -- 48
2019-06-19 23:00:00 19.5 3 Sudoeste 13 Sudoeste 0 -- -- 44
2019-06-19 22:00:00 21.4 9 Sudoeste 12 Oeste 0 -- -- 39
2019-06-19 21:00:00 23.5 6 Oeste 17 Sudoeste 0 -- -- 35
2019-06-19 20:00:00 25 10 Oeste 27 Sudoeste 0 -- -- 32
2019-06-19 19:00:00 26.8 9 Oeste 26 Oeste 0 -- -- 29
2019-06-19 18:00:00 27.4 9 Sudoeste 25 Sudoeste 0 -- -- 29
2019-06-19 17:00:00 27.2 11 Sudoeste 28 Oeste 0 -- -- 28
2019-06-19 16:00:00 26.6 10 Sudoeste 26 Noroeste 0 -- -- 28
2019-06-19 15:00:00 26.4 13 Sudoeste -- -- -- -- -- 33
2019-06-19 14:00:00 -- -- -- -- -- -- -- -- --
2019-06-19 13:00:00 24.3 7 Sudeste 27 Oeste 0 -- -- 38
2019-06-19 12:00:00 22.8 10 Sur 27 Sudeste 0 -- -- 41
2019-06-19 11:00:00 21.7 7 Este 20 Sudeste 0 -- -- 46
2019-06-19 10:00:00 19.6 12 Sudeste 19 Sudeste 0 -- -- 53
2019-06-19 09:00:00 15.4 10 Sudeste 17 Nordeste 0 -- -- 51
2019-06-19 08:00:00 10.7 2 Nordeste 13 Sudeste 0 -- -- 57
2019-06-19 07:00:00 9.4 2 Sudeste 11 Sudeste 0 -- -- 56
2019-06-19 06:00:00 9.9 0 Calma 6 Sudeste 0 -- -- 53
2019-06-19 05:00:00 11 4 Sudeste 9 Sudeste 0 -- -- 50
2019-06-19 04:00:00 12.2 3 Sur 8 Sudeste 0 -- -- 46
2019-06-19 03:00:00 13.1 0 Calma 8 Sudoeste 0 -- -- 44
2019-06-19 02:00:00 14.5 0 Calma 5 Noroeste 0 -- -- 39
2019-06-19 01:00:00 16.1 0 Calma 6 Sur 0 -- -- 37
2019-06-19 00:00:00 18 4 Sur 12 Sudoeste 0 -- -- 32
2019-06-18 23:00:00 20.7 6 Sudoeste 15 Sudoeste 0 -- -- 27
2019-06-18 22:00:00 23.3 9 Sur 23 Sudoeste 0 -- -- 23
2019-06-18 21:00:00 25.5 7 Sur 31 Sur 0 -- -- 21
2019-06-18 20:00:00 27 16 Sur 41 Sur 0 -- -- 20
2019-06-18 19:00:00 27.8 12 Sur 34 Sudeste 0 -- -- 24
2019-06-18 18:00:00 28.2 17 Sur 41 Sudeste 0 -- -- 24
2019-06-18 17:00:00 28.2 18 Sur 39 Sur 0 -- -- 23
2019-06-18 16:00:00 28.1 18 Sur 54 Sudeste 0 -- -- 25
2019-06-18 15:00:00 28 18 Sur 48 Sudeste 0 -- -- 26
2019-06-18 14:00:00 27.3 20 Sur 46 Sudeste 0 -- -- 25
2019-06-18 13:00:00 27 17 Sudeste 35 Sudeste 0 -- -- 27
2019-06-18 12:00:00 26.1 15 Sudeste 35 Sudeste 0 -- -- 28
2019-06-18 11:00:00 25 13 Sudeste 28 Sudeste 0 -- -- 29
2019-06-18 10:00:00 23.1 10 Sudeste 20 Sur 0 -- -- 34
2019-06-18 09:00:00 20.3 12 Sur 21 Sudoeste 0 -- -- 42
2019-06-18 08:00:00 16.9 7 Sudoeste 19 Sur 0 -- -- 50
2019-06-18 07:00:00 16.9 8 Sudoeste 23 Sur 0 -- -- 50
2019-06-18 06:00:00 17.7 9 Sur 22 Sur 0 -- -- 48
2019-06-18 05:00:00 18.2 12 Sur 21 Sur 0 -- -- 47
2019-06-18 04:00:00 18.3 9 Sudoeste 15 Sur 0 -- -- 48
2019-06-18 03:00:00 18.4 6 Sudoeste 14 Sur 0 -- -- 50
2019-06-18 02:00:00 18.7 8 Sudoeste 22 Sudoeste 0 -- -- 50
2019-06-18 01:00:00 19.7 14 Sudoeste 21 Sudoeste 0 -- -- 46
2019-06-18 00:00:00 20.2 7 Sur 22 Sudoeste 0 -- -- 46
2019-06-17 23:00:00 20.9 13 Sudoeste 22 Sudoeste 0 -- -- 44
2019-06-17 22:00:00 22.8 10 Sur 24 Sur 0 -- -- 33
2019-06-17 21:00:00 25.4 14 Sur 27 Sur 0 -- -- 23
2019-06-17 20:00:00 27 10 Sur 30 Sur 0 -- -- 22
2019-06-17 19:00:00 27.8 10 Sudeste 29 Sudeste 0 -- -- 23
2019-06-17 18:00:00 28.3 9 Sudeste 35 Sudeste 0 -- -- 22
2019-06-17 17:00:00 28.6 7 Sur 23 Sur 0 -- -- 20
2019-06-17 16:00:00 28.2 12 Sur 30 Sudeste 0 -- -- 20
2019-06-17 15:00:00 28 12 Este 35 Sudeste 0 -- -- 21
2019-06-17 14:00:00 27.1 11 Sur 26 Sur 0 -- -- 21
2019-06-17 13:00:00 25.8 9 Norte 23 Norte 0 -- -- 28
2019-06-17 12:00:00 24.9 8 Nordeste 20 Norte 0 -- -- 31
2019-06-17 11:00:00 22.9 9 Norte 17 Nordeste 0 -- -- 36
2019-06-17 10:00:00 19.7 3 Este 13 Este 0 -- -- 45
2019-06-17 09:00:00 15.4 6 Sudeste 17 Este 0 -- -- 60
2019-06-17 08:00:00 11.3 2 Este 17 Este 0 -- -- 70
2019-06-17 07:00:00 10.9 9 Sudeste 22 Este 0 -- -- 70
2019-06-17 06:00:00 12.1 16 Este 23 Este 0 -- -- 68
2019-06-17 05:00:00 13.3 5 Este 14 Oeste 0 -- -- 67
2019-06-17 04:00:00 14.5 7 Sur 23 Sudoeste 0 -- -- 67
2019-06-17 03:00:00 15.1 0 Calma 10 Este 0 -- -- 64
2019-06-17 02:00:00 16 2 Este 20 Sur 0 -- -- 59
2019-06-17 01:00:00 16.8 8 Sur 20 Sudoeste 0 -- -- 55
2019-06-17 00:00:00 17.4 10 Sudoeste 23 Sur 0 -- -- 55
2019-06-16 23:00:00 18.4 14 Sur 21 Sur 0 -- -- 53
2019-06-16 22:00:00 20.1 11 Sur 26 Sudoeste 0 -- -- 46
2019-06-16 21:00:00 21.8 13 Sur 33 Sur 0 -- -- 36
2019-06-16 20:00:00 22.6 13 Sur 35 Este 0 -- -- 34
2019-06-16 19:00:00 22.7 21 Sudeste 35 Sudeste 0 -- -- 38
2019-06-16 18:00:00 23.9 10 Sur 33 Sudeste 0 -- -- 33
2019-06-16 17:00:00 24.5 14 Sudeste 34 Sudeste 0 -- -- 32
2019-06-16 16:00:00 24.6 14 Sur 36 Sudeste 0 -- -- 31
2019-06-16 15:00:00 24.6 19 Sudeste 35 Sudeste 0 -- -- 31
2019-06-16 14:00:00 24 13 Sudeste 30 Sudeste 0 -- -- 32
2019-06-16 13:00:00 23.5 13 Sudeste 32 Sudeste 0 -- -- 35
2019-06-16 12:00:00 22.6 16 Sudeste 32 Sudeste 0 -- -- 35
2019-06-16 11:00:00 21.2 6 Sudoeste 17 Sudeste 0 -- -- 37
2019-06-16 10:00:00 18.1 9 Sur 18 Sudeste 0 -- -- 41
2019-06-16 09:00:00 12.7 4 Este 14 Sudeste 0 -- -- 62
2019-06-16 08:00:00 8.4 9 Sudeste 21 Sudeste 0 -- -- 74
2019-06-16 07:00:00 6.6 3 Sudeste 10 Nordeste 0 -- -- 78
2019-06-16 06:00:00 7.2 0 Calma 10 Sudeste 0 -- -- 76
2019-06-16 05:00:00 8.2 4 Sudeste 8 Sudeste 0 -- -- 72
2019-06-16 04:00:00 9 0 Calma 4 Sudeste 0 -- -- 70
2019-06-16 03:00:00 10.3 0 Calma 5 Oeste 0 -- -- 65
2019-06-16 02:00:00 12.1 0 Calma 9 Norte 0 -- -- 59
2019-06-16 01:00:00 13.9 3 Norte 12 Oeste 0 -- -- 53
2019-06-16 00:00:00 15.3 3 Norte 9 Noroeste 0 -- -- 48
2019-06-15 23:00:00 16.4 2 Noroeste 13 Noroeste 0 -- -- 43
2019-06-15 22:00:00 17.7 5 Noroeste 24 Norte 0 -- -- 39
2019-06-15 21:00:00 20.8 12 Noroeste 19 Noroeste 0 -- -- 33
2019-06-15 20:00:00 22.4 9 Norte 19 Noroeste 0 -- -- 30
2019-06-15 19:00:00 23.2 7 Norte 21 Norte 0 -- -- 29
2019-06-15 18:00:00 23 10 Norte 19 Norte 0 -- -- 30
2019-06-15 17:00:00 22.6 10 Norte 23 Nordeste 0 -- -- 32
2019-06-15 16:00:00 21.9 12 Norte 23 Nordeste 0 -- -- 34
2019-06-15 15:00:00 21.8 13 Este 32 Este 0 -- -- 35
2019-06-15 14:00:00 21.1 9 Nordeste 21 Este 0 -- -- 33
2019-06-15 13:00:00 19.7 6 Nordeste 16 Nordeste 0 -- -- 35
2019-06-15 12:00:00 17.9 6 Norte 15 Nordeste 0 -- -- 39
2019-06-15 11:00:00 16.6 7 Nordeste 18 Norte 0 -- -- 42
2019-06-15 10:00:00 14.9 10 Norte 24 Noroeste 0 -- -- 46
2019-06-15 09:00:00 11.6 8 Sudeste 15 Sudeste 0 -- -- 58
2019-06-15 08:00:00 6.8 2 Sudeste 9 Sudeste 0 -- -- 71
2019-06-15 07:00:00 5.6 2 Noroeste 5 Oeste 0 -- -- 73
2019-06-15 06:00:00 6.7 0 Calma 6 Sudeste 0 -- -- 68
2019-06-15 05:00:00 7.3 0 Calma 6 Noroeste 0 -- -- 65
2019-06-15 04:00:00 7.7 0 Calma 5 Noroeste 0 -- -- 63
2019-06-15 03:00:00 8.9 0 Calma 9 Sudoeste 0 -- -- 59
2019-06-15 02:00:00 11.1 4 Sur 14 Sudoeste 0 -- -- 51
2019-06-15 01:00:00 12 4 Sudoeste 13 Sudoeste 0 -- -- 48
2019-06-15 00:00:00 13.6 6 Oeste 14 Sudoeste 0 -- -- 42
2019-06-14 23:00:00 16 6 Sudoeste 13 Sudoeste 0 -- -- 38
2019-06-14 22:00:00 18.1 7 Sudoeste 24 Sur 0 -- -- 32
2019-06-14 21:00:00 20.2 14 Sur 34 Sur 0 -- -- 26
2019-06-14 20:00:00 21.8 15 Sur 32 Sur 0 -- -- 23
2019-06-14 19:00:00 22.8 18 Sur 31 Sur 0 -- -- 23
2019-06-14 18:00:00 23.5 15 Sudoeste 40 Sudoeste 0 -- -- 27
2019-06-14 17:00:00 23.7 17 Sudoeste 30 Sur 0 -- -- 30
2019-06-14 16:00:00 24 12 Sudoeste 36 Sudoeste 0 -- -- 29
2019-06-14 15:00:00 23.1 17 Sudoeste 30 Sur 0 -- -- 30
2019-06-14 14:00:00 22.6 12 Sur 31 Sudoeste 0 -- -- 38
2019-06-14 13:00:00 21.2 6 Este 15 Oeste 0 -- -- 52
2019-06-14 12:00:00 17.8 8 Oeste 18 Oeste 0 -- -- 59
2019-06-14 11:00:00 15.5 4 Sudeste 20 Sur 0 -- -- 80
2019-06-14 10:00:00 14 13 Sur 22 Sur 0.8 -- -- 87
2019-06-14 09:00:00 12.9 17 Sudoeste 27 Sudoeste 1 -- -- 88
2019-06-14 08:00:00 11.8 6 Noroeste 9 Noroeste 0.2 -- -- 86
2019-06-14 07:00:00 11.6 4 Norte 17 Este 0 -- -- 81
2019-06-14 06:00:00 11.8 10 Sudeste 18 Sudeste 0 -- -- 81
2019-06-14 05:00:00 12 12 Sudeste 19 Sudeste 0 -- -- 80
2019-06-14 04:00:00 12.4 14 Sudeste 21 Sudeste 0 -- -- 81
2019-06-14 03:00:00 12.9 4 Sudeste 13 Sudeste 0 -- -- 79
2019-06-14 02:00:00 13.9 6 Sur 27 Sudeste 0 -- -- 76
2019-06-14 01:00:00 14.3 12 Sudeste 20 Sudeste 0 -- -- 74
2019-06-14 00:00:00 14.5 0 Calma 13 Sur 0 -- -- 74
2019-06-13 23:00:00 15.5 8 Sudoeste 19 Sudoeste 0 -- -- 70
2019-06-13 22:00:00 16.6 5 Sur 18 Sur 0 -- -- 65
2019-06-13 21:00:00 18.3 16 Sur 31 Sudeste 0 -- -- 59
2019-06-13 20:00:00 19.7 21 Sudeste 32 Sudeste 0 -- -- 54
2019-06-13 19:00:00 21.2 15 Sudeste 24 Sudeste 0 -- -- 48
2019-06-13 18:00:00 21.5 7 Sur 23 Sudeste 0 -- -- 44
2019-06-13 17:00:00 21.2 10 Sudeste 26 Sudeste 0 -- -- 47
2019-06-13 16:00:00 21 13 Sudeste 31 Sudeste 0 -- -- 47
2019-06-13 15:00:00 21 14 Sudeste 30 Sudeste 0 -- -- 48
2019-06-13 14:00:00 18.6 12 Sudeste 33 Sudeste 0 -- -- 55
2019-06-13 13:00:00 17.3 16 Sudeste 36 Sudeste 0 -- -- 61
2019-06-13 12:00:00 15.1 17 Sudeste 28 Sudeste 0 -- -- 70
2019-06-13 11:00:00 15.3 14 Sudeste 29 Sudeste 0 -- -- 69
2019-06-13 10:00:00 14.2 16 Sudeste 29 Sudeste 0 -- -- 73
2019-06-13 09:00:00 13.3 20 Sudeste 35 Sudeste 0 -- -- 79
2019-06-13 08:00:00 12.7 9 Sudeste 25 Sudeste 0 -- -- 80
2019-06-13 07:00:00 12.2 3 Sur 13 Sudeste 0 -- -- 82
2019-06-13 06:00:00 12 0 Calma 6 Este 0 -- -- 79
2019-06-13 05:00:00 11.8 0 Calma 17 Sudeste 0 -- -- 78
2019-06-13 04:00:00 11.6 3 Sur 22 Sudoeste 0 -- -- 80
2019-06-13 03:00:00 11 10 Sur 25 Sur 0 -- -- 82
2019-06-13 02:00:00 10.3 11 Sur 31 Sur 0 -- -- 80
2019-06-13 01:00:00 10.6 9 Sudoeste 21 Sudoeste 0 -- -- 61
2019-06-13 00:00:00 11.1 8 Sudoeste 38 Sur 0 -- -- 60
2019-06-12 23:00:00 12.3 12 Sur 29 Sudoeste 0 -- -- 59
2019-06-12 22:00:00 14.3 17 Sur 26 Sudoeste 0 -- -- 57
2019-06-12 21:00:00 15.9 14 Sudeste 42 Sudeste 0 -- -- 53
2019-06-12 20:00:00 18.6 26 Sudeste 40 Sudeste 0 -- -- 44
2019-06-12 19:00:00 20.4 14 Sur 32 Sudeste 0 -- -- 30
2019-06-12 18:00:00 19.2 20 Sudeste 36 Sudeste 0 -- -- 30
2019-06-12 17:00:00 19.7 18 Sudeste 29 Sudeste 0 -- -- 29
2019-06-12 16:00:00 20.4 8 Sur 35 Sudeste 0 -- -- 26
2019-06-12 15:00:00 19.5 9 Sur 35 Sudeste 0 -- -- 26
2019-06-12 14:00:00 18.1 13 Sur 31 Sudeste 0 -- -- 27
2019-06-12 13:00:00 17.1 14 Sudeste 25 Sudeste 0 -- -- 34
2019-06-12 12:00:00 15.8 9 Sudeste 19 Sudeste 0 -- -- 36
2019-06-12 11:00:00 14.5 8 Sur 16 Este 0 -- -- 38
2019-06-12 10:00:00 11.1 9 Este 15 Este 0 -- -- 58
2019-06-12 09:00:00 6.7 9 Este 18 Este 0 -- -- 71
2019-06-12 08:00:00 2.3 14 Sudeste 29 Sudeste 0 -- -- 84
2019-06-12 07:00:00 0.5 5 Sudeste 23 Sudoeste 0 -- -- 88
2019-06-12 06:00:00 1 7 Sudeste 14 Sudeste 0 -- -- 87
2019-06-12 05:00:00 1.4 6 Sudeste 15 Sudeste 0 -- -- 86
2019-06-12 04:00:00 2 3 Sudeste 10 Sudeste 0 -- -- 87
2019-06-12 03:00:00 2.8 3 Sudeste 8 Sur 0 -- -- 85
2019-06-12 02:00:00 3.5 4 Sur 8 Oeste 0 -- -- 84
2019-06-12 01:00:00 4.4 3 Sur 7 Sur 0 -- -- 81
2019-06-12 00:00:00 5.2 6 Noroeste 10 Noroeste 0 -- -- 77
2019-06-11 23:00:00 6.9 0 Calma 6 Sur 0 -- -- 71
2019-06-11 22:00:00 8.1 2 Oeste 14 Noroeste 0 -- -- 65
2019-06-11 21:00:00 10.6 9 Noroeste 27 Noroeste 0 -- -- 56
2019-06-11 20:00:00 11.5 14 Norte 30 Noroeste 0 -- -- 51
2019-06-11 19:00:00 11.8 9 Norte 28 Noroeste 0 -- -- 58
2019-06-11 18:00:00 9.1 21 Noroeste 46 Noroeste 0 -- -- 70
2019-06-11 17:00:00 10.9 6 Nordeste 22 Norte 0 -- -- 61
2019-06-11 16:00:00 8.7 11 Norte 21 Norte 0 -- -- 71
2019-06-11 15:00:00 7.4 10 Norte 30 Noroeste 0 -- -- 79
2019-06-11 14:00:00 7.8 21 Noroeste 36 Noroeste 0 -- -- 74
2019-06-11 13:00:00 9.2 21 Noroeste 31 Noroeste 0 -- -- 72
2019-06-11 12:00:00 10.1 16 Noroeste 27 Noroeste 0 -- -- 65
2019-06-11 11:00:00 9.7 17 Norte 29 Norte 0 -- -- 66
2019-06-11 10:00:00 9.3 12 Norte 27 Noroeste 0 -- -- 68
2019-06-11 09:00:00 9.2 8 Norte 19 Norte 0 -- -- 66
2019-06-11 08:00:00 8.6 11 Norte 18 Norte 0 -- -- 67
2019-06-11 07:00:00 8.6 5 Norte 12 Norte 0 -- -- 68
2019-06-11 06:00:00 8.8 3 Norte 6 Norte 0 -- -- 72
2019-06-11 05:00:00 8.4 3 Norte 11 Sudeste 0 -- -- 75
2019-06-11 04:00:00 7.7 0 Calma 4 Noroeste 0 -- -- 77
2019-06-11 03:00:00 7.8 0 Calma 6 Noroeste 0 -- -- 75
2019-06-11 02:00:00 8.7 5 Noroeste 11 Nordeste 0 -- -- 72
2019-06-11 01:00:00 10.2 5 Nordeste 12 Nordeste 0 -- -- 66
2019-06-11 00:00:00 11.4 3 Sudoeste 13 Nordeste 0 -- -- 63
2019-06-10 23:00:00 12.9 6 Norte 21 Norte 0 -- -- 58
2019-06-10 22:00:00 14.5 18 Noroeste 30 Noroeste 0 -- -- 53
2019-06-10 21:00:00 18.3 4 Norte 18 Noroeste 0 -- -- 44
2019-06-10 20:00:00 19.4 11 Noroeste 20 Noroeste 0 -- -- 39
2019-06-10 19:00:00 20.5 9 Norte 21 Norte 0 -- -- 37
2019-06-10 18:00:00 21.4 5 Nordeste 23 Norte 0 -- -- 37
2019-06-10 17:00:00 21.9 12 Norte 25 Nordeste 0 -- -- 36
2019-06-10 16:00:00 22.1 7 Este 21 Nordeste 0 -- -- 37
2019-06-10 15:00:00 21.6 7 Este 26 Norte 0 -- -- 37
2019-06-10 14:00:00 19.6 10 Norte 26 Norte 0 -- -- 42
2019-06-10 13:00:00 19.1 8 Nordeste 23 Norte 0 -- -- 48
2019-06-10 12:00:00 18.7 8 Este 24 Este 0 -- -- 55
2019-06-10 11:00:00 15.6 7 Norte 16 Norte 0 -- -- 64
2019-06-10 10:00:00 13.4 5 Nordeste 13 Nordeste 0 -- -- 72
2019-06-10 09:00:00 11.3 7 Norte 13 Norte 0 -- -- 76
2019-06-10 08:00:00 7.7 3 Sudeste 5 Este 0 -- -- 75
2019-06-10 07:00:00 6.7 2 Oeste 5 Sur 0 -- -- 84
2019-06-10 06:00:00 7.5 3 Noroeste 12 Oeste 0 -- -- 83
2019-06-10 05:00:00 8.7 5 Noroeste 9 Noroeste 0 -- -- 76
2019-06-10 04:00:00 10.6 4 Sur 12 Norte 0 -- -- 68
2019-06-10 03:00:00 12 5 Noroeste 18 Sudoeste 0 -- -- 47
2019-06-10 02:00:00 13.3 8 Sur 17 Sur 0 -- -- 43
2019-06-10 01:00:00 14 6 Sudeste 11 Este 0 -- -- 44
2019-06-10 00:00:00 15.5 7 Sudeste 13 Sur 0 -- -- 41
2019-06-09 23:00:00 17 8 Sudoeste 14 Sudoeste 0 -- -- 37
2019-06-09 22:00:00 17.7 4 Oeste 13 Sudoeste 0 -- -- 36
2019-06-09 21:00:00 21.2 5 Oeste 18 Oeste 0 -- -- 29
2019-06-09 20:00:00 23.4 11 Oeste 26 Oeste 0 -- -- 27
2019-06-09 19:00:00 24.5 12 Sudoeste 30 Sur 0 -- -- 26
2019-06-09 18:00:00 25.2 10 Sudoeste 23 Sudoeste 0 -- -- 26
2019-06-09 17:00:00 25.3 12 Oeste 35 Sur 0 -- -- 27
2019-06-09 16:00:00 25.5 12 Sur 25 Sudoeste 0 -- -- 27
2019-06-09 15:00:00 24.9 12 Sur 25 Sur 0 -- -- 29
2019-06-09 14:00:00 24.7 10 Sur 26 Oeste 0 -- -- 28
2019-06-09 13:00:00 23.5 10 Sur 24 Noroeste 0 -- -- 31
2019-06-09 12:00:00 23.7 9 Noroeste 20 Noroeste 0 -- -- 32
2019-06-09 11:00:00 21.6 12 Sudeste 19 Sudeste 0 -- -- 42
2019-06-09 10:00:00 17.6 11 Este 16 Este 0 -- -- 54
2019-06-09 09:00:00 11.7 9 Este 15 Este 0 -- -- 66
2019-06-09 08:00:00 11.3 5 Sudoeste 13 Sudoeste 0 -- -- 65
2019-06-09 07:00:00 10.4 2 Norte 9 Sudoeste 0 -- -- 68
2019-06-09 06:00:00 11.4 4 Sudeste 13 Sur 0 -- -- 64
2019-06-09 05:00:00 12.1 4 Sudeste 10 Sur 0 -- -- 62
2019-06-09 04:00:00 13.4 5 Sur 14 Sudoeste 0 -- -- 57
2019-06-09 03:00:00 13.2 5 Sur 13 Sudoeste 0 -- -- 60
2019-06-09 02:00:00 12.6 2 Sudeste 7 Este 0 -- -- 63
2019-06-09 01:00:00 12.9 3 Norte 5 Nordeste 0 -- -- 65
2019-06-09 00:00:00 13.9 0 Calma 10 Sudoeste 0 -- -- 60
2019-06-08 23:00:00 15 6 Sudoeste 16 Sudeste 0 -- -- 57
2019-06-08 22:00:00 15.9 9 Sudeste 26 Sudeste 0 -- -- 54
2019-06-08 21:00:00 16.9 10 Sur 31 Sur 0 -- -- 50
2019-06-08 20:00:00 18 15 Sudeste 29 Sudeste 0 -- -- 46
2019-06-08 19:00:00 19.3 18 Sudeste 35 Sudeste 0 -- -- 47
2019-06-08 18:00:00 20.4 21 Sudeste 32 Sudeste 0 -- -- 46
2019-06-08 17:00:00 20.3 21 Sudeste 55 Sudeste 0 -- -- 46
2019-06-08 16:00:00 22.2 23 Sudeste 44 Sudeste 0 -- -- 44
2019-06-08 15:00:00 22.2 19 Sudeste 40 Este 0 -- -- 45
2019-06-08 14:00:00 21.4 20 Sudeste 37 Sudeste 0 -- -- 45
2019-06-08 13:00:00 20.7 20 Sudeste 38 Sudeste 0 -- -- 44
2019-06-08 12:00:00 19.7 14 Sudeste 28 Este 0 -- -- 44
2019-06-08 11:00:00 17.2 4 Oeste 15 Norte 0 -- -- 49
2019-06-08 10:00:00 14 3 Sudeste 9 Este 0 -- -- 51
2019-06-08 09:00:00 9.8 5 Este 10 Este 0 -- -- 58
2019-06-08 08:00:00 6 6 Sudeste 15 Sudeste 0 -- -- 66
2019-06-08 07:00:00 4.2 6 Sudeste 12 Sudeste 0 -- -- 72
2019-06-08 06:00:00 4.6 2 Sudeste 8 Sudeste 0 -- -- 70
2019-06-08 05:00:00 5 0 Calma 6 Sudeste 0 -- -- 69
2019-06-08 04:00:00 5.7 2 Oeste 6 Sudeste 0 -- -- 68
2019-06-08 03:00:00 6.3 3 Oeste 7 Oeste 0 -- -- 66
2019-06-08 02:00:00 7 0 Calma 7 Oeste 0 -- -- 64
2019-06-08 01:00:00 8.3 2 Sur 8 Oeste 0 -- -- 58
2019-06-08 00:00:00 10.2 4 Noroeste 8 Oeste 0 -- -- 52
2019-06-07 23:00:00 11.7 6 Oeste 12 Oeste 0 -- -- 47
2019-06-07 22:00:00 14.4 2 Noroeste 18 Noroeste 0 -- -- 41
2019-06-07 21:00:00 16.5 15 Noroeste 27 Norte 0 -- -- 35
2019-06-07 20:00:00 19.7 10 Norte 20 Norte 0 -- -- 29
2019-06-07 19:00:00 20.2 10 Sur 18 Sudoeste 0 -- -- 19
2019-06-07 18:00:00 20.6 10 Oeste 23 Sudoeste 0 -- -- 20
2019-06-07 17:00:00 20.6 7 Sur 24 Sudoeste 0 -- -- 21
2019-06-07 16:00:00 20 9 Sudoeste 26 Oeste 0 -- -- 23
2019-06-07 15:00:00 19.4 11 Sudeste 33 Noroeste 0 -- -- 24
2019-06-07 14:00:00 18.2 9 Sudoeste 31 Oeste 0 -- -- 28
2019-06-07 13:00:00 16.7 15 Noroeste 36 Oeste 0 -- -- 33
2019-06-07 12:00:00 15.4 16 Oeste 36 Oeste 0 -- -- 39
2019-06-07 11:00:00 14.1 12 Sudoeste 33 Sur 0 -- -- 56
2019-06-07 10:00:00 13.7 14 Sudoeste 34 Sudoeste 0 -- -- 62
2019-06-07 09:00:00 14.1 13 Oeste 34 Oeste 0 -- -- 62
2019-06-07 08:00:00 13.5 9 Sur 28 Sudoeste 0 -- -- 65
2019-06-07 07:00:00 12.7 14 Sur 30 Sur 0 -- -- 67
2019-06-07 06:00:00 12.3 13 Sur 29 Sudeste 0 -- -- 64
2019-06-07 05:00:00 11.5 9 Sur 17 Sudeste 0 -- -- 59
2019-06-07 04:00:00 12 9 Sur 18 Sudeste 0 -- -- 57
2019-06-07 03:00:00 12.2 14 Sudeste 26 Sudeste 0 -- -- 68
2019-06-07 02:00:00 11.6 11 Sudeste 22 Sudeste 0 -- -- 78
2019-06-07 01:00:00 11.9 5 Sudeste 31 Sudeste 0 -- -- 73
2019-06-07 00:00:00 12.7 16 Sudeste 35 Sudeste 0 -- -- 68
2019-06-06 23:00:00 13.5 21 Sur 42 Sudeste 0 -- -- 57
2019-06-06 22:00:00 14.5 22 Sudeste 42 Sudeste 0 -- -- 58
2019-06-06 21:00:00 16.3 27 Sudeste 49 Sudeste 0 -- -- 57
2019-06-06 20:00:00 17.9 31 Sudeste 50 Sudeste 0 -- -- 49
2019-06-06 19:00:00 19.8 31 Sudeste 49 Sudeste 0 -- -- 46
2019-06-06 18:00:00 21.8 22 Sudeste 51 Sudeste 0 -- -- 28
2019-06-06 17:00:00 21.2 25 Sur 54 Sudeste 0 -- -- 28
2019-06-06 16:00:00 20.6 26 Sudeste 50 Sudeste 0 -- -- 28
2019-06-06 15:00:00 20 22 Sur 52 Sudeste 0 -- -- 29
2019-06-06 14:00:00 19.1 20 Sudeste 43 Sudeste 0 -- -- 32
2019-06-06 13:00:00 18.1 19 Sur 48 Sudeste 0 -- -- 33
2019-06-06 12:00:00 17.9 18 Sudeste 41 Sudeste 0 -- -- 34
2019-06-06 11:00:00 15.9 20 Sudeste 39 Sudeste 0 -- -- 38
2019-06-06 10:00:00 14.4 17 Sudeste 30 Sudeste 0 -- -- 42
2019-06-06 09:00:00 9.8 8 Este 16 Este 0 -- -- 59
2019-06-06 08:00:00 5.3 9 Sudeste 16 Este 0 -- -- 69
2019-06-06 07:00:00 3.6 3 Sur 12 Sur 0 -- -- 74
2019-06-06 06:00:00 3.9 0 Calma 10 Sudeste 0 -- -- 72
2019-06-06 05:00:00 4.7 6 Este 13 Este 0 -- -- 70
2019-06-06 04:00:00 5.5 6 Sudeste 13 Este 0 -- -- 66
2019-06-06 03:00:00 6.2 13 Sudeste 17 Sudeste 0 -- -- 64
2019-06-06 02:00:00 6.7 3 Sudoeste 8 Sudeste 0 -- -- 63
2019-06-06 01:00:00 8 0 Calma 6 Sur 0 -- -- 65
2019-06-06 00:00:00 8.9 4 Sur 10 Oeste 0 -- -- 62
2019-06-05 23:00:00 10.6 6 Noroeste 12 Norte 0 -- -- 49
2019-06-05 22:00:00 12.5 4 Oeste 14 Sudoeste 0 -- -- 43
2019-06-05 21:00:00 15.2 4 Sudoeste 19 Oeste 0 -- -- 36
2019-06-05 20:00:00 15.6 9 Noroeste 22 Noroeste 0 -- -- 38
2019-06-05 19:00:00 16.5 12 Noroeste 28 Noroeste 0 -- -- 32
2019-06-05 18:00:00 15.9 11 Oeste 27 Noroeste 0 -- -- 35
2019-06-05 17:00:00 15.9 15 Noroeste 36 Noroeste 0 -- -- 36
2019-06-05 16:00:00 15.4 18 Noroeste 35 Noroeste 0 -- -- 39
2019-06-05 15:00:00 15.6 21 Noroeste 44 Noroeste 0 -- -- 36
2019-06-05 14:00:00 14.9 20 Oeste 45 Oeste 0 -- -- 44
2019-06-05 13:00:00 13 28 Noroeste 47 Oeste 0 -- -- 54
2019-06-05 12:00:00 14.7 16 Oeste 37 Sudoeste 0 -- -- 42
2019-06-05 11:00:00 14 15 Sudoeste 38 Sudoeste 0 -- -- 45
2019-06-05 10:00:00 14.5 17 Sur 42 Sudoeste 0 -- -- 51
2019-06-05 09:00:00 14 10 Sur 31 Sur 0 -- -- 63
2019-06-05 08:00:00 13.9 13 Sur 22 Sudoeste 0 -- -- 63
2019-06-05 07:00:00 12.9 8 Sudoeste 12 Sudoeste 0 -- -- 68
2019-06-05 06:00:00 13.5 7 Sudoeste 15 Sudoeste 0 -- -- 64
2019-06-05 05:00:00 14.1 10 Sudoeste 15 Sudoeste 0 -- -- 60
2019-06-05 04:00:00 14.6 11 Sudoeste 15 Sudoeste 0 -- -- 55
2019-06-05 03:00:00 14.8 3 Sur 18 Sudoeste 0 -- -- 54
2019-06-05 02:00:00 15.7 5 Sudeste 10 Sudeste 0 -- -- 50
2019-06-05 01:00:00 17 3 Sudoeste 11 Sudoeste 0 -- -- 47
2019-06-05 00:00:00 18.1 7 Sudoeste 19 Sur 0 -- -- 45
2019-06-04 23:00:00 20.1 10 Sudoeste 28 Sudeste 0 -- -- 41
2019-06-04 22:00:00 22 11 Sudeste 32 Sudoeste 0 -- -- 36
2019-06-04 21:00:00 23.7 12 Sur 33 Sur 0 -- -- 30
2019-06-04 20:00:00 24.9 17 Sur 37 Sudoeste 0 -- -- 29
2019-06-04 19:00:00 26.3 14 Sur 36 Sur 0 -- -- 26
2019-06-04 18:00:00 26.6 20 Sur 42 Sudeste 0 -- -- 22
2019-06-04 17:00:00 27.5 22 Sudeste 42 Sudeste 0 -- -- 21
2019-06-04 16:00:00 27.6 15 Sur 42 Sudeste 0 -- -- 23
2019-06-04 15:00:00 27.3 22 Sudeste 49 Sudeste 0 -- -- 23
2019-06-04 14:00:00 27 15 Sur 38 Sudeste 0 -- -- 25
2019-06-04 13:00:00 26.7 16 Sudeste 45 Sudeste 0 -- -- 27
2019-06-04 12:00:00 25.7 12 Sudoeste 31 Sudoeste 0 -- -- 31
2019-06-04 11:00:00 24.4 16 Sudoeste 29 Sudoeste 0 -- -- 31
2019-06-04 10:00:00 22.2 9 Sudeste 16 Sudeste 0 -- -- 38
2019-06-04 09:00:00 16.2 6 Sudeste 11 Este 0 -- -- 58
2019-06-04 08:00:00 12.7 4 Sudeste 12 Sudeste 0 -- -- 66
2019-06-04 07:00:00 12.1 3 Sudeste 12 Nordeste 0 -- -- 66
2019-06-04 06:00:00 12.8 6 Sudeste 17 Sudoeste 0 -- -- 63
2019-06-04 05:00:00 15.1 8 Sudoeste 14 Sudoeste 0 -- -- 56
2019-06-04 04:00:00 15.5 8 Sudoeste 18 Sudoeste 0 -- -- 55
2019-06-04 03:00:00 15.8 12 Sudoeste 20 Sudoeste 0 -- -- 56
2019-06-04 02:00:00 16.2 10 Sudoeste 19 Sudoeste 0 -- -- 55
2019-06-04 01:00:00 16.9 13 Sudoeste 19 Sur 0 -- -- 52
2019-06-04 00:00:00 18.6 11 Sudoeste 21 Sudoeste 0 -- -- 48
2019-06-03 23:00:00 19.5 2 Sudoeste 8 Norte 0 -- -- 45
2019-06-03 22:00:00 22.6 3 Oeste 18 Sudoeste 0 -- -- 36
2019-06-03 21:00:00 26.3 8 Sudoeste 21 Sudoeste 0 -- -- 24
2019-06-03 20:00:00 27.7 8 Sudoeste 33 Sur 0 -- -- 22
2019-06-03 19:00:00 27.9 11 Sur 30 Sudoeste 0 -- -- 22
2019-06-03 18:00:00 29.3 10 Sudoeste 29 Sur 0 -- -- 23
2019-06-03 17:00:00 28.3 11 Sur 31 Sudeste 0 -- -- 24
2019-06-03 16:00:00 29.2 15 Sudoeste 31 Sudoeste 0 -- -- 25
2019-06-03 15:00:00 29 12 Sudoeste 28 Sudoeste 0 -- -- 26
2019-06-03 14:00:00 28 12 Sudoeste 27 Sudoeste 0 -- -- 27
2019-06-03 13:00:00 28.1 9 Sudoeste 29 Sur 0 -- -- 26
2019-06-03 12:00:00 27.6 9 Oeste 20 Sudoeste 0 -- -- 28
2019-06-03 11:00:00 25.4 6 Sudeste 21 Sur 0 -- -- 37
2019-06-03 10:00:00 23 9 Sur 23 Sur 0 -- -- 37
2019-06-03 09:00:00 19.8 15 Sur 26 Sur 0 -- -- 39
2019-06-03 08:00:00 17.3 12 Sudoeste 24 Sudoeste 0 -- -- 44
2019-06-03 07:00:00 15.9 11 Sudoeste 22 Sudoeste 0 -- -- 46
2019-06-03 06:00:00 15.3 17 Sudoeste 26 Sudoeste 0 -- -- 48
2019-06-03 05:00:00 15.4 14 Sudoeste 22 Sudoeste 0 -- -- 49
2019-06-03 04:00:00 14.6 5 Sur 20 Sudoeste 0 -- -- 55
2019-06-03 03:00:00 16.2 8 Sudoeste 23 Sur 0 -- -- 51
2019-06-03 02:00:00 17.7 15 Sur 30 Sur 0 -- -- 43
2019-06-03 01:00:00 18.8 18 Sur 31 Sur 0 -- -- 41
2019-06-03 00:00:00 19.3 13 Sudoeste 23 Sudoeste 0 -- -- 43
2019-06-02 23:00:00 20.3 16 Sur 36 Sur 0 -- -- 42
2019-06-02 22:00:00 21.6 18 Sur 30 Sudoeste 0 -- -- 41
2019-06-02 21:00:00 23.8 12 Sur 23 Sudoeste 0 -- -- 37
2019-06-02 20:00:00 25.3 9 Sudeste 29 Sudeste 0 -- -- 35
2019-06-02 19:00:00 27.3 12 Sudeste 24 Sudeste 0 -- -- 31
2019-06-02 18:00:00 27.8 5 Este 14 Oeste 0 -- -- 28
2019-06-02 17:00:00 28.1 5 Norte 15 Este 0 -- -- 27
2019-06-02 16:00:00 28.8 6 Sur 21 Este 0 -- -- 27
2019-06-02 15:00:00 28.2 10 Noroeste 19 Noroeste 0 -- -- 28
2019-06-02 14:00:00 28.7 8 Nordeste 18 Norte 0 -- -- 27
2019-06-02 13:00:00 27.4 9 Nordeste 28 Norte 0 -- -- 28
2019-06-02 12:00:00 25.9 9 Norte 17 Norte 0 -- -- 32
2019-06-02 11:00:00 24.3 4 Este 15 Este 0 -- -- 36
2019-06-02 10:00:00 19.7 9 Este 18 Sudeste 0 -- -- 49
2019-06-02 09:00:00 15.4 10 Sudeste 17 Sudeste 0 -- -- 57
2019-06-02 08:00:00 11.7 11 Este 18 Este 0 -- -- 66
2019-06-02 07:00:00 10.5 6 Sur 18 Sudeste 0 -- -- 68
2019-06-02 06:00:00 11.6 14 Este 20 Sudeste 0 -- -- 64
2019-06-02 05:00:00 12.3 11 Este 18 Este 0 -- -- 62
2019-06-02 04:00:00 13.6 10 Sudeste 17 Sur 0 -- -- 57
2019-06-02 03:00:00 14.4 5 Sudoeste 15 Sudoeste 0 -- -- 52
2019-06-02 02:00:00 15.1 8 Sudoeste 21 Sudoeste 0 -- -- 49
2019-06-02 01:00:00 15.6 6 Sur 17 Sur 0 -- -- 49
2019-06-02 00:00:00 16.8 9 Sur 18 Sur 0 -- -- 48
2019-06-01 23:00:00 17.9 3 Sur 13 Sudoeste 0 -- -- 47
2019-06-01 22:00:00 20 8 Sur 24 Sur 0 -- -- 43
2019-06-01 21:00:00 22.1 13 Sur 28 Sur 0 -- -- 40
2019-06-01 20:00:00 25.5 10 Sudeste 31 Este 0 -- -- 34
2019-06-01 19:00:00 27.9 6 Sudeste 17 Noroeste 0 -- -- 25
2019-06-01 18:00:00 27.7 6 Norte 23 Norte 0 -- -- 26
2019-06-01 17:00:00 27.4 10 Noroeste 20 Nordeste 0 -- -- 26
2019-06-01 16:00:00 27.1 9 Norte 19 Nordeste 0 -- -- 25
2019-06-01 15:00:00 27 8 Nordeste 19 Nordeste 0 -- -- 29
2019-06-01 14:00:00 25.8 7 Nordeste 21 Este 0 -- -- 31
2019-06-01 13:00:00 24.5 6 Norte 15 Sudeste 0 -- -- 36
2019-06-01 12:00:00 22.9 11 Norte 19 Norte 0 -- -- 37
2019-06-01 11:00:00 21.4 5 Norte 11 Nordeste 0 -- -- 45
2019-06-01 10:00:00 18.2 4 Este 17 Sudeste 0 -- -- 52
2019-06-01 09:00:00 14 10 Sudeste 21 Este 0 -- -- 64
2019-06-01 08:00:00 10.2 12 Sudeste 20 Sudeste 0 -- -- 75
2019-06-01 07:00:00 9.1 8 Sudeste 21 Sudeste 0 -- -- 79
2019-06-01 06:00:00 9.7 9 Sudeste 15 Sudeste 0 -- -- 77
2019-06-01 05:00:00 10.8 8 Sudeste 15 Este 0 -- -- 74
2019-06-01 04:00:00 12.3 9 Este 15 Sur 0 -- -- 69
2019-06-01 03:00:00 13.5 4 Sudeste 14 Sur 0 -- -- 65
2019-06-01 02:00:00 14.4 9 Sur 17 Sudoeste 0 -- -- 64
2019-06-01 01:00:00 14.8 5 Oeste 18 Sur 0 -- -- 64
2019-06-01 00:00:00 14.7 0 Calma 7 Oeste 0 -- -- 64
2019-05-31 23:00:00 15.9 4 Noroeste 10 Noroeste 0 -- -- 60
2019-05-31 22:00:00 18.7 6 Noroeste 11 Oeste 0 -- -- 52
2019-05-31 21:00:00 22.4 3 Sudeste 22 Norte 0 -- -- 41
2019-05-31 20:00:00 25.8 7 Norte 17 Norte 0 -- -- 19
2019-05-31 19:00:00 26.4 7 Norte 21 Este 0 -- -- 19
2019-05-31 18:00:00 26.5 8 Noroeste 20 Norte 0 -- -- 20
2019-05-31 17:00:00 26.5 9 Norte 19 Nordeste 0 -- -- 23
2019-05-31 16:00:00 25.8 7 Noroeste 19 Norte 0 -- -- 21
2019-05-31 15:00:00 25.8 7 Nordeste 18 Noroeste 0 -- -- 23
2019-05-31 14:00:00 24.5 8 Nordeste 17 Nordeste 0 -- -- 25
2019-05-31 13:00:00 23.1 5 Norte 14 Norte 0 -- -- 30
2019-05-31 12:00:00 22.8 6 Nordeste 13 Nordeste 0 -- -- 33
2019-05-31 11:00:00 20.6 3 Este 12 Nordeste 0 -- -- 40
2019-05-31 10:00:00 16.8 8 Este 20 Este 0 -- -- 52
2019-05-31 09:00:00 12.3 12 Este 23 Este 0 -- -- 61
2019-05-31 08:00:00 8.2 10 Sudeste 22 Este -- -- -- 72
2019-05-31 07:00:00 6.8 6 Sudeste 20 Este 0 -- -- 75
2019-05-31 06:00:00 7.4 8 Sudeste 15 Este 0 -- -- 73
2019-05-31 05:00:00 8.3 8 Sudeste 20 Este 0 -- -- 69
2019-05-31 04:00:00 8.8 10 Sudeste 21 Este 0 -- -- 68
2019-05-31 03:00:00 9 4 Sudeste 12 Sudeste 0 -- -- 67
2019-05-31 02:00:00 10.2 0 Calma 7 Sur 0 -- -- 62
2019-05-31 01:00:00 11.3 0 Calma 8 Sudeste 0 -- -- 60
2019-05-31 00:00:00 12.9 0 Calma 7 Sur 0 -- -- 55
2019-05-30 23:00:00 14.4 3 Oeste 8 Oeste 0 -- -- 50
2019-05-30 22:00:00 16.5 4 Noroeste 10 Noroeste 0 -- -- 46
2019-05-30 21:00:00 20.5 6 Noroeste 23 Norte 0 -- -- 37
2019-05-30 20:00:00 22.4 14 Noroeste 25 Norte 0 -- -- 34
2019-05-30 19:00:00 23.4 13 Noroeste 29 Noroeste 0 -- -- 30
2019-05-30 18:00:00 24 8 Norte 28 Noroeste 0 -- -- 28
2019-05-30 17:00:00 24.1 11 Norte 31 Noroeste 0 -- -- 31
2019-05-30 16:00:00 23.8 12 Norte 25 Noroeste 0 -- -- 31
2019-05-30 15:00:00 22.8 9 Nordeste 25 Norte 0 -- -- 34
2019-05-30 14:00:00 21.7 10 Noroeste 21 Norte 0 -- -- 37
2019-05-30 13:00:00 20.5 7 Norte 19 Norte 0 -- -- 41
2019-05-30 12:00:00 18.6 10 Norte 18 Norte 0 -- -- 41
2019-05-30 11:00:00 17.1 9 Nordeste 19 Nordeste 0 -- -- 44
2019-05-30 10:00:00 15.2 8 Nordeste 13 Nordeste 0 -- -- 54
2019-05-30 09:00:00 10.2 4 Este 10 Este 0 -- -- 71
2019-05-30 08:00:00 6.2 3 Noroeste 8 Sudeste 0 -- -- 85
2019-05-30 07:00:00 4.6 0 Calma 7 Oeste 0 -- -- 89
2019-05-30 06:00:00 4.6 3 Oeste 8 Norte 0 -- -- 89
2019-05-30 05:00:00 5.4 4 Sudoeste 9 Sur 0 -- -- 87
2019-05-30 04:00:00 5.9 0 Calma 6 Oeste 0 -- -- 85
2019-05-30 03:00:00 6.6 0 Calma 8 Oeste 0 -- -- 83
2019-05-30 02:00:00 7.5 4 Sur 10 Oeste 0 -- -- 80
2019-05-30 01:00:00 9.3 5 Sur 9 Noroeste 0 -- -- 74
2019-05-30 00:00:00 10.7 3 Oeste 15 Noroeste 0 -- -- 69
2019-05-29 23:00:00 11.9 7 Noroeste 14 Noroeste 0 -- -- 65
2019-05-29 22:00:00 13.6 8 Noroeste 27 Noroeste 0 -- -- 59
2019-05-29 21:00:00 16.2 12 Noroeste 28 Noroeste 0 -- -- 49
2019-05-29 20:00:00 17.9 19 Noroeste 31 Norte 0 -- -- 43
2019-05-29 19:00:00 18.5 18 Noroeste 37 Noroeste 0 -- -- 41
2019-05-29 18:00:00 18.3 25 Noroeste 41 Noroeste 0 -- -- 41
2019-05-29 17:00:00 18.4 17 Noroeste 42 Noroeste 0 -- -- 40
2019-05-29 16:00:00 18 16 Norte 33 Nordeste 0 -- -- 38
2019-05-29 15:00:00 17.2 18 Norte 40 Norte 0 -- -- 32
2019-05-29 14:00:00 16.3 20 Norte 48 Norte 0 -- -- 39
2019-05-29 13:00:00 14.4 21 Norte 49 Norte 0 -- -- 48
2019-05-29 12:00:00 12.9 27 Norte 45 Noroeste 0 -- -- 51
2019-05-29 11:00:00 11.5 24 Noroeste 42 Noroeste 0 -- -- 55
2019-05-29 10:00:00 10.1 23 Norte 48 Noroeste 0 -- -- 58
2019-05-29 09:00:00 9 21 Noroeste 39 Noroeste 0 -- -- 63
2019-05-29 08:00:00 6.2 8 Norte 18 Noroeste 0 -- -- 71
2019-05-29 07:00:00 4.8 2 Sur 15 Oeste 0 -- -- 76
2019-05-29 06:00:00 5.2 3 Norte 17 Noroeste 0 -- -- 75
2019-05-29 05:00:00 5.4 3 Sudoeste 15 Noroeste 0 -- -- 76
2019-05-29 04:00:00 5.9 7 Noroeste 18 Norte 0 -- -- 74
2019-05-29 03:00:00 6.2 11 Noroeste 32 Noroeste 0 -- -- 73
2019-05-29 02:00:00 6.4 0 Calma 9 Sudoeste 0 -- -- 76
2019-05-29 01:00:00 7.1 7 Noroeste 20 Noroeste 0 -- -- 72
2019-05-29 00:00:00 8.4 7 Norte 17 Oeste 0 -- -- 68
2019-05-28 23:00:00 9.6 8 Noroeste 19 Noroeste 0 -- -- 64
2019-05-28 22:00:00 11 10 Noroeste 28 Noroeste 0 -- -- 61
2019-05-28 21:00:00 12.8 13 Noroeste 37 Noroeste 0 -- -- 57
2019-05-28 20:00:00 15.5 15 Norte 32 Noroeste 0 -- -- 48
2019-05-28 19:00:00 16.8 20 Noroeste 39 Norte 0 -- -- 46
2019-05-28 18:00:00 18.9 17 Noroeste 35 Noroeste 0 -- -- 35
2019-05-28 17:00:00 18.7 18 Noroeste 38 Oeste 0 -- -- 31
2019-05-28 16:00:00 18.8 17 Norte 32 Norte 0 -- -- 35
2019-05-28 15:00:00 18.5 14 Noroeste 31 Norte 0 -- -- 33
2019-05-28 14:00:00 17.1 14 Norte 29 Norte 0 -- -- 36
2019-05-28 13:00:00 16.2 15 Norte 30 Noroeste 0 -- -- 41
2019-05-28 12:00:00 14.9 12 Nordeste 19 Nordeste 0 -- -- 57
2019-05-28 11:00:00 12.3 8 Nordeste 19 Norte 0 -- -- 64
2019-05-28 10:00:00 11.1 8 Norte 18 Nordeste 0 -- -- 71
2019-05-28 09:00:00 9.2 10 Norte 17 Noroeste 0 -- -- 79
2019-05-28 08:00:00 8.1 3 Sudeste 10 Oeste 0 -- -- 87
2019-05-28 07:00:00 8.3 7 Noroeste 10 Noroeste 0 -- -- 87
2019-05-28 06:00:00 8 3 Nordeste 8 Oeste 0 -- -- 90
2019-05-28 05:00:00 7.6 4 Noroeste 13 Noroeste 0 -- -- 87
2019-05-28 04:00:00 9.1 4 Noroeste 10 Norte 0 -- -- 84
2019-05-28 03:00:00 10.3 7 Norte 15 Nordeste 0 -- -- 82
2019-05-28 02:00:00 11 8 Norte 18 Norte 0 -- -- 82
2019-05-28 01:00:00 11.7 8 Norte 17 Nordeste 0 -- -- 81
2019-05-28 00:00:00 11.9 8 Noroeste 26 Noroeste 0 -- -- 78
2019-05-27 23:00:00 12.8 10 Noroeste 18 Noroeste 0 -- -- 73
2019-05-27 22:00:00 14 9 Norte 27 Noroeste 0 -- -- 69
2019-05-27 21:00:00 15.8 14 Noroeste 33 Noroeste 0 -- -- 62
2019-05-27 20:00:00 18.3 16 Norte 39 Noroeste 0 -- -- 52
2019-05-27 19:00:00 20.3 17 Noroeste 35 Noroeste 0 -- -- 47
2019-05-27 18:00:00 21.9 16 Noroeste 39 Noroeste 0 -- -- 43
2019-05-27 17:00:00 22.3 21 Noroeste 45 Norte 0 -- -- 38
2019-05-27 16:00:00 22.6 14 Noroeste 36 Nordeste 0 -- -- 37
2019-05-27 15:00:00 21.7 18 Noroeste 32 Norte 0 -- -- 37
2019-05-27 14:00:00 21.4 15 Noroeste 32 Noroeste 0 -- -- 40
2019-05-27 13:00:00 20 12 Noroeste 30 Noroeste 0 -- -- 42
2019-05-27 12:00:00 19.2 12 Norte 24 Norte 0 -- -- 44
2019-05-27 11:00:00 18 15 Noroeste 31 Norte 0 -- -- 49
2019-05-27 10:00:00 16.2 15 Norte 29 Norte 0 -- -- 54
2019-05-27 09:00:00 10 4 Sudeste 7 Este 0 -- -- 81
2019-05-27 08:00:00 5.3 3 Oeste 6 Norte 0 -- -- 95
2019-05-27 07:00:00 4 2 Oeste 8 Noroeste 0 -- -- 95
2019-05-27 06:00:00 4.3 3 Noroeste 10 Oeste 0 -- -- 94
2019-05-27 05:00:00 4.9 3 Noroeste 8 Noroeste 0 -- -- 92
2019-05-27 04:00:00 5.4 2 Sudoeste 5 Sudeste 0 -- -- 91
2019-05-27 03:00:00 6.8 4 Noroeste 10 Sudeste 0 -- -- 89
2019-05-27 02:00:00 7 4 Sudoeste 9 Sur 0 -- -- 88
2019-05-27 01:00:00 7.8 5 Oeste 10 Oeste 0 -- -- 85
2019-05-27 00:00:00 8.5 4 Oeste 8 Oeste 0 -- -- 83
2019-05-26 23:00:00 10.8 0 Calma 11 Norte 0 -- -- 75
2019-05-26 22:00:00 12.4 9 Noroeste 18 Noroeste 0 -- -- 68
2019-05-26 21:00:00 14.6 9 Nordeste 20 Norte 0 -- -- 61
2019-05-26 20:00:00 16.7 10 Norte 23 Norte 0 -- -- 55
2019-05-26 19:00:00 18 14 Noroeste 29 Norte 0 -- -- 47
2019-05-26 18:00:00 17.9 15 Norte 31 Nordeste 0 -- -- 44
2019-05-26 17:00:00 17.4 11 Norte 38 Noroeste 0 -- -- 49
2019-05-26 16:00:00 16.6 15 Norte 33 Norte 0 -- -- 51
2019-05-26 15:00:00 16.1 17 Norte 32 Norte 0 -- -- 51
2019-05-26 14:00:00 14.9 15 Norte 29 Noroeste 0 -- -- 55
2019-05-26 13:00:00 13.5 18 Norte 30 Norte 0 -- -- 61
2019-05-26 12:00:00 11.7 15 Nordeste 30 Norte 0 -- -- 65
2019-05-26 11:00:00 9.8 13 Norte 24 Norte 0 -- -- 72
2019-05-26 10:00:00 8.8 10 Norte 21 Norte 0 -- -- 75
2019-05-26 09:00:00 7.8 10 Norte 17 Nordeste 0 -- -- 79
2019-05-26 08:00:00 6.8 6 Norte 13 Norte 0 -- -- 87
2019-05-26 07:00:00 6.7 7 Norte 16 Oeste 0 -- -- 88
2019-05-26 06:00:00 6.9 7 Norte 15 Norte 0 -- -- 86
2019-05-26 05:00:00 7.5 4 Norte 20 Noroeste 0 -- -- 83
2019-05-26 04:00:00 7.5 9 Noroeste 18 Norte 0 -- -- 83
2019-05-26 03:00:00 8.1 11 Noroeste 19 Noroeste 0 -- -- 84
2019-05-26 02:00:00 8.5 5 Norte 18 Norte 0 -- -- 84
2019-05-26 01:00:00 9.1 6 Norte 12 Noroeste 0 -- -- 83
2019-05-26 00:00:00 9.2 5 Noroeste 17 Noroeste 0 -- -- 83
2019-05-25 23:00:00 9.8 2 Sur 28 Noroeste 0 -- -- 79
2019-05-25 22:00:00 11.2 17 Noroeste 29 Noroeste 0 -- -- 74
2019-05-25 21:00:00 13.2 13 Noroeste 25 Nordeste 0 -- -- 68
2019-05-25 20:00:00 15.1 11 Norte 23 Norte 0 -- -- 61
2019-05-25 19:00:00 15.6 13 Norte 24 Norte 0 -- -- 58
2019-05-25 18:00:00 15.5 14 Norte 33 Noroeste 0 -- -- 57
2019-05-25 17:00:00 14.8 14 Norte 27 Noroeste 0 -- -- 60
2019-05-25 16:00:00 14.6 14 Norte 30 Noroeste 0 -- -- 60
2019-05-25 15:00:00 13.7 13 Norte 28 Norte 0 -- -- 64
2019-05-25 14:00:00 13.5 19 Noroeste 34 Norte 0 -- -- 65
2019-05-25 13:00:00 11.4 15 Norte 38 Noroeste 0 -- -- 71
2019-05-25 12:00:00 10.5 22 Noroeste 37 Noroeste 0 -- -- 73
2019-05-25 11:00:00 9.4 14 Norte 35 Noroeste 0 -- -- 77
2019-05-25 10:00:00 9.1 18 Noroeste 41 Noroeste 0 -- -- 78
2019-05-25 09:00:00 8.5 26 Noroeste 37 Noroeste 0 -- -- 80
2019-05-25 08:00:00 8.3 13 Noroeste 30 Noroeste 0 -- -- 81
2019-05-25 07:00:00 8.4 17 Noroeste 27 Noroeste 0 -- -- 80
2019-05-25 06:00:00 8.3 8 Noroeste 30 Norte 0 -- -- 81
2019-05-25 05:00:00 8.3 19 Noroeste 36 Noroeste 0 -- -- 81
2019-05-25 04:00:00 8.5 19 Noroeste 36 Noroeste 0 -- -- 83
2019-05-25 03:00:00 8.9 7 Noroeste 24 Noroeste 0 -- -- 83
2019-05-25 02:00:00 9.1 7 Norte 21 Noroeste 0 -- -- 83
2019-05-25 01:00:00 9.1 10 Noroeste 26 Noroeste 0 -- -- 82
2019-05-25 00:00:00 9 14 Norte 28 Noroeste 0 -- -- 83